createdAt,value
2023-06-14T00:00:50.149Z,101536.56
2023-06-14T00:05:51.700Z,101533.66
2023-06-14T00:10:53.208Z,101540.63
2023-06-14T00:15:56.000Z,101539.25
2023-06-14T00:20:57.766Z,101548.78
2023-06-14T00:25:59.282Z,101546.03
2023-06-14T00:31:00.987Z,101534.97
2023-06-14T00:36:02.485Z,101543.84
2023-06-14T00:41:04.512Z,101537.72
2023-06-14T00:46:06.042Z,101537.63
2023-06-14T00:51:07.633Z,101542.66
2023-06-14T00:56:09.138Z,101540.50
2023-06-14T01:01:10.762Z,101542.88
2023-06-14T01:06:30.349Z,101544.16
2023-06-14T01:11:50.098Z,101535.22
2023-06-14T01:16:54.349Z,101548.31
2023-06-14T01:21:58.851Z,101549.00
2023-06-14T01:27:00.476Z,101552.50
2023-06-14T01:32:01.997Z,101542.59
2023-06-14T01:37:03.860Z,101545.59
2023-06-14T01:42:05.835Z,101538.91
2023-06-14T01:47:07.558Z,101540.09
2023-06-14T01:52:10.810Z,101543.09
2023-06-14T01:57:12.857Z,101541.91
2023-06-14T02:02:14.404Z,101549.13
2023-06-14T02:07:16.018Z,101535.13
2023-06-14T02:12:17.609Z,101540.47
2023-06-14T02:17:19.168Z,101549.72
2023-06-14T02:22:22.905Z,101547.94
2023-06-14T02:27:24.409Z,101543.81
2023-06-14T02:32:27.635Z,101548.56
2023-06-14T02:37:29.334Z,101543.72
2023-06-14T02:42:31.449Z,101547.00
2023-06-14T02:47:33.156Z,101537.25
2023-06-14T02:52:35.082Z,101548.63
2023-06-14T02:57:36.621Z,101563.34
2023-06-14T03:02:38.236Z,101576.94
2023-06-14T03:07:46.130Z,101572.28
2023-06-14T03:12:48.360Z,101578.88
2023-06-14T03:17:50.295Z,101575.16
2023-06-14T03:22:52.962Z,101575.88
2023-06-14T03:27:54.475Z,101580.56
2023-06-14T03:32:56.956Z,101587.69
2023-06-14T03:37:58.492Z,101587.00
2023-06-14T03:42:59.995Z,101595.75
2023-06-14T03:48:01.979Z,101603.88
2023-06-14T03:53:03.691Z,101604.72
2023-06-14T03:58:05.786Z,101609.13
2023-06-14T04:03:07.394Z,101613.03
2023-06-14T04:08:11.978Z,101620.22
2023-06-14T04:13:14.329Z,101622.59
2023-06-14T04:18:15.777Z,101632.84
2023-06-14T04:23:19.174Z,101635.34
2023-06-14T04:28:20.737Z,101629.91
2023-06-14T04:33:22.401Z,101631.78
2023-06-14T04:38:26.788Z,101628.97
2023-06-14T04:43:28.760Z,101643.00
2023-06-14T04:48:30.343Z,101629.28
2023-06-14T04:53:32.167Z,101639.72
2023-06-14T04:58:33.681Z,101631.31
2023-06-14T05:03:35.640Z,101633.44
2023-06-14T05:08:37.301Z,101631.34
2023-06-14T05:13:38.863Z,101635.28
2023-06-14T05:18:41.295Z,101635.81
2023-06-14T05:23:42.899Z,101649.81
2023-06-14T05:28:44.416Z,101644.00
2023-06-14T05:33:46.006Z,101655.28
2023-06-14T05:38:47.556Z,101654.03
2023-06-14T05:43:49.066Z,101658.66
2023-06-14T05:48:50.637Z,101658.66
2023-06-14T05:53:52.305Z,101660.00
2023-06-14T05:58:53.880Z,101666.19
2023-06-14T06:03:55.608Z,101673.72
2023-06-14T06:08:57.166Z,101670.03
2023-06-14T06:13:58.688Z,101667.94
2023-06-14T06:19:00.447Z,101680.69
2023-06-14T06:24:04.640Z,101671.09
2023-06-14T06:29:06.204Z,101679.41
2023-06-14T06:34:07.730Z,101687.22
2023-06-14T06:39:11.314Z,101691.03
2023-06-14T06:44:13.432Z,101690.81
2023-06-14T06:49:15.145Z,101706.38
2023-06-14T06:54:16.657Z,101709.47
2023-06-14T06:59:18.170Z,101717.47
2023-06-14T07:04:19.705Z,101726.97
2023-06-14T07:09:21.683Z,101722.03
2023-06-14T07:14:24.032Z,101729.56
2023-06-14T07:19:25.832Z,101724.28
2023-06-14T07:24:29.491Z,101724.81
2023-06-14T07:29:31.249Z,101723.78
2023-06-14T07:34:32.843Z,101731.63
2023-06-14T07:39:34.348Z,101726.09
2023-06-14T07:44:35.879Z,101724.41
2023-06-14T07:49:37.382Z,101739.13
2023-06-14T07:54:38.917Z,101742.38
2023-06-14T07:59:40.638Z,101743.72
2023-06-14T08:04:43.051Z,101738.41
2023-06-14T08:09:44.572Z,101737.09
2023-06-14T08:14:46.167Z,101737.09
2023-06-14T08:19:47.957Z,101737.81
2023-06-14T08:24:49.480Z,101743.94
2023-06-14T08:29:51.090Z,101737.72
2023-06-14T08:35:04.108Z,101742.41
2023-06-14T08:40:28.780Z,101741.94
2023-06-14T08:45:32.471Z,101744.06
2023-06-14T08:50:35.489Z,101743.50
2023-06-14T08:55:40.921Z,101741.47
2023-06-14T09:00:45.663Z,101743.06
2023-06-14T09:05:47.960Z,101752.00
2023-06-14T09:10:49.569Z,101754.09
2023-06-14T09:15:51.302Z,101754.19
2023-06-14T09:20:52.825Z,101751.34
2023-06-14T09:25:54.343Z,101747.97
2023-06-14T09:30:56.079Z,101747.59
2023-06-14T09:35:57.687Z,101755.34
2023-06-14T09:40:59.427Z,101750.63
2023-06-14T09:46:03.801Z,101766.69
2023-06-14T09:51:05.300Z,101757.00
2023-06-14T09:56:06.862Z,101773.56
2023-06-14T10:01:08.370Z,101760.41
2023-06-14T10:06:09.917Z,101758.94
2023-06-14T10:11:13.455Z,101769.44
2023-06-14T10:16:23.674Z,101771.31
2023-06-14T10:21:30.278Z,101769.28
2023-06-14T10:26:31.889Z,101763.66
2023-06-14T10:31:46.756Z,101760.53
2023-06-14T10:36:48.251Z,101764.38
2023-06-14T10:41:54.177Z,101759.75
2023-06-14T10:46:56.426Z,101755.81
2023-06-14T10:51:58.333Z,101755.81
2023-06-14T10:57:00.392Z,101744.59
2023-06-14T11:02:20.440Z,101753.63
2023-06-14T11:07:48.361Z,101760.53
2023-06-14T11:12:49.931Z,101750.63
2023-06-14T11:17:54.510Z,101751.22
2023-06-14T11:22:56.364Z,101750.69
2023-06-14T11:27:58.010Z,101741.47
2023-06-14T11:32:59.666Z,101747.81
2023-06-14T11:38:02.492Z,101746.44
2023-06-14T11:43:03.997Z,101729.25
2023-06-14T11:48:05.984Z,101731.47
2023-06-14T11:53:08.682Z,101739.53
2023-06-14T11:58:10.237Z,101731.41
2023-06-14T12:03:11.890Z,101723.44
2023-06-14T12:08:21.471Z,101722.72
2023-06-14T12:13:23.881Z,101724.47
2023-06-14T12:18:38.122Z,101716.44
2023-06-14T12:23:46.153Z,101716.97
2023-06-14T12:28:52.385Z,101706.28
2023-06-14T12:33:53.976Z,101715.47
2023-06-14T12:38:55.629Z,101712.63
2023-06-14T12:43:59.026Z,101709.13
2023-06-14T12:49:00.607Z,101713.56
2023-06-14T12:54:02.584Z,101712.16
2023-06-14T12:59:04.127Z,101716.88
2023-06-14T13:04:05.785Z,101713.09
2023-06-14T13:09:07.429Z,101715.56
2023-06-14T13:19:15.524Z,101709.94
2023-06-14T13:24:17.317Z,101707.16
2023-06-14T13:29:18.920Z,101699.94
2023-06-14T13:34:20.444Z,101699.34
2023-06-14T13:39:21.958Z,101702.16
2023-06-14T13:44:23.332Z,101699.03
2023-06-14T13:49:24.829Z,101693.56
2023-06-14T13:54:26.405Z,101687.03
2023-06-14T13:59:27.893Z,101688.88
2023-06-14T14:04:29.355Z,101689.69
2023-06-14T14:09:31.436Z,101685.00
2023-06-14T14:14:33.344Z,101685.16
2023-06-14T14:19:34.950Z,101690.88
2023-06-14T14:24:36.533Z,101689.50
2023-06-14T14:29:38.102Z,101681.03
2023-06-14T14:34:39.615Z,101680.38
2023-06-14T14:39:41.293Z,101676.13
2023-06-14T14:44:43.161Z,101668.81
2023-06-14T14:49:44.702Z,101679.28
2023-06-14T14:54:46.094Z,101677.69
2023-06-14T14:59:47.621Z,101672.63
2023-06-14T15:04:49.016Z,101683.06
2023-06-14T15:09:52.441Z,101674.34
2023-06-14T15:14:54.040Z,101671.03
2023-06-14T15:19:55.807Z,101675.66
2023-06-14T15:24:57.429Z,101670.41
2023-06-14T15:29:58.963Z,101667.66
2023-06-14T15:35:00.523Z,101663.69
2023-06-14T15:40:02.205Z,101665.59
2023-06-14T15:45:04.287Z,101670.22
2023-06-14T15:50:08.839Z,101651.63
2023-06-14T15:55:10.577Z,101661.97
2023-06-14T16:00:12.576Z,101650.91
2023-06-14T16:05:14.415Z,101655.31
2023-06-14T16:10:16.192Z,101658.59
2023-06-14T16:15:18.948Z,101654.06
2023-06-14T16:20:20.508Z,101649.00
2023-06-14T16:25:22.646Z,101649.66
2023-06-14T16:30:24.244Z,101645.84
2023-06-14T16:35:25.614Z,101648.19
2023-06-14T16:40:27.156Z,101643.19
2023-06-14T16:45:28.764Z,101654.34
2023-06-14T16:50:30.272Z,101657.63
2023-06-14T16:55:32.870Z,101645.97
2023-06-14T17:00:34.496Z,101645.97
2023-06-14T17:05:36.027Z,101642.19
2023-06-14T17:10:37.535Z,101656.75
2023-06-14T17:15:39.055Z,101654.03
2023-06-14T17:20:41.018Z,101656.28
2023-06-14T17:25:42.654Z,101651.97
2023-06-14T17:30:44.204Z,101653.72
2023-06-14T17:35:45.905Z,101656.28
2023-06-14T17:40:51.178Z,101661.31
2023-06-14T17:45:53.074Z,101660.66
2023-06-14T17:50:54.620Z,101664.28
2023-06-14T17:55:56.118Z,101663.94
2023-06-14T18:00:57.653Z,101662.78
2023-06-14T18:06:01.231Z,101663.28
2023-06-14T18:11:02.749Z,101666.78
2023-06-14T18:16:04.317Z,101671.75
2023-06-14T18:21:05.841Z,101668.59
2023-06-14T18:26:07.385Z,101660.72
2023-06-14T18:31:09.006Z,101677.84
2023-06-14T18:36:10.957Z,101679.88
2023-06-14T18:41:12.342Z,101674.09
2023-06-14T18:46:13.887Z,101680.94
2023-06-14T18:51:15.607Z,101672.41
2023-06-14T18:56:17.137Z,101676.97
2023-06-14T19:01:18.723Z,101671.56
2023-06-14T19:06:20.398Z,101671.91
2023-06-14T19:11:21.909Z,101676.34
2023-06-14T19:16:23.425Z,101684.03
2023-06-14T19:21:25.183Z,101686.13
2023-06-14T19:26:27.220Z,101685.00
2023-06-14T19:31:28.643Z,101668.63
2023-06-14T19:36:30.212Z,101676.34
2023-06-14T19:41:31.902Z,101684.41
2023-06-14T19:46:33.497Z,101699.66
2023-06-14T19:51:35.050Z,101696.31
2023-06-14T19:56:36.555Z,101694.47
2023-06-14T20:01:38.081Z,101692.25
2023-06-14T20:06:39.833Z,101697.97
2023-06-14T20:11:41.370Z,101702.56
2023-06-14T20:16:42.950Z,101706.59
2023-06-14T20:21:44.522Z,101706.72
2023-06-14T20:26:46.073Z,101714.50
2023-06-14T20:31:49.044Z,101712.19
2023-06-14T20:36:50.811Z,101714.59
2023-06-14T20:41:52.365Z,101709.00
2023-06-14T20:46:53.941Z,101711.91
2023-06-14T20:51:56.690Z,101719.28
2023-06-14T20:56:59.270Z,101714.94
2023-06-14T21:02:00.953Z,101715.50
2023-06-14T21:07:03.331Z,101709.41
2023-06-14T21:12:05.614Z,101700.84
2023-06-14T21:17:09.530Z,101707.19
2023-06-14T21:22:11.341Z,101710.22
2023-06-14T21:27:13.126Z,101707.78
2023-06-14T21:32:14.647Z,101715.06
2023-06-14T21:37:16.164Z,101711.63
2023-06-14T21:42:17.680Z,101715.06
2023-06-14T21:47:19.648Z,101712.63
2023-06-14T21:52:21.182Z,101710.19
2023-06-14T21:57:22.707Z,101714.44
2023-06-14T22:02:24.307Z,101703.22
2023-06-14T22:07:26.192Z,101706.72
2023-06-14T22:12:27.799Z,101700.28
2023-06-14T22:17:30.440Z,101707.22
2023-06-14T22:22:32.547Z,101710.75
2023-06-14T22:27:34.178Z,101706.84
2023-06-14T22:32:35.769Z,101703.44
2023-06-14T22:37:38.195Z,101707.78
2023-06-14T22:42:50.632Z,101710.38
2023-06-14T22:47:52.568Z,101705.88
2023-06-14T22:52:54.466Z,101708.16
2023-06-14T22:57:55.996Z,101698.66
2023-06-14T23:02:58.219Z,101694.81
2023-06-14T23:07:59.810Z,101696.28
2023-06-14T23:13:03.534Z,101699.78
2023-06-14T23:18:06.466Z,101700.72
2023-06-14T23:23:08.025Z,101694.09
2023-06-14T23:28:09.602Z,101697.78
2023-06-14T23:33:11.480Z,101685.38
2023-06-14T23:38:13.246Z,101693.19
2023-06-14T23:43:15.264Z,101688.56
2023-06-14T23:48:16.918Z,101684.06
2023-06-14T23:53:18.428Z,101681.88
2023-06-14T23:58:20.943Z,101686.31
